Terminal Aerodrome Forecast
Issued by NWS Cleveland, OH

Home | Current Version | Previous Version | Graphics & Text | Print | Product List | Glossary On
Versions: 1 2 3 4 5 6 7 8 9 10 11 12 13 14 15 16 17 18 19 20 21
000
FTUS41 KCLE 082331
TAFERI
TAF
KERI 082331Z 0900/0924 26015G25KT 4SM -SN SCT006 OVC025
     FM091000 29014G22KT 2SM -SHSN OVC008
     FM091600 29012G20KT 3SM -SHSN OVC012=

USA.gov is the U.S. government's official web portal to all federal, state and local government web resources and services.